Time;durP1;ratioP1;P1;durP2;ratioP2;P2;SDS_P1;SDS_P2;PMS_P1;PMS_P2;Temp;Humidity;BMP_temperature;BMP_pressure;BME280_temperature;BME280_humidity;BME280_pressure;Samples;Min_cycle;Max_cycle;Signal;HPM_P1;HPM_P2
2023/12/27 00:01:24;;;;;;;0.43;0.43;;;;;;;8.49;81.22;96007.00;4397100;32;20298;-62
2023/12/27 00:03:50;;;;;;;0.50;0.50;;;;;;;8.49;80.80;96014.94;4393849;32;20320;-63
2023/12/27 00:06:15;;;;;;;0.90;0.90;;;;;;;8.45;80.87;96022.59;4382939;32;20377;-62
2023/12/27 00:08:41;;;;;;;1.60;0.93;;;;;;;8.58;80.37;96018.62;4397683;32;20271;-61
2023/12/27 00:11:06;;;;;;;0.50;0.50;;;;;;;8.54;80.67;96026.28;4389059;32;20288;-62
2023/12/27 00:13:33;;;;;;;0.50;0.50;;;;;;;8.61;80.65;96012.81;4404508;32;20187;-62
2023/12/27 00:15:59;;;;;;;0.77;0.73;;;;;;;8.42;81.12;96015.16;4403294;32;20196;-62
2023/12/27 00:18:26;;;;;;;1.27;0.87;;;;;;;8.56;80.84;96010.94;4379550;32;20407;-61
2023/12/27 00:20:51;;;;;;;0.50;0.50;;;;;;;8.75;79.83;96008.59;4395925;32;20264;-62
2023/12/27 00:23:18;;;;;;;0.50;0.50;;;;;;;8.88;79.17;96018.66;4397334;32;20263;-62
2023/12/27 00:25:43;;;;;;;1.60;1.03;;;;;;;8.80;79.50;96013.88;4405597;32;20180;-63
2023/12/27 00:28:08;;;;;;;0.63;0.63;;;;;;;8.83;79.57;96000.13;4389755;32;20323;-62
2023/12/27 00:30:35;;;;;;;0.47;0.47;;;;;;;8.87;79.22;96011.78;4401285;32;20210;-62
2023/12/27 00:33:01;;;;;;;2.30;0.90;;;;;;;8.80;79.45;96019.16;4382186;32;20184;-62
2023/12/27 00:35:29;;;;;;;0.97;0.47;;;;;;;8.63;80.53;96018.62;4397599;32;20279;-62
2023/12/27 00:37:57;;;;;;;0.93;0.80;;;;;;;8.69;80.39;96027.38;4399819;32;20321;-62
2023/12/27 00:40:22;;;;;;;0.60;0.60;;;;;;;8.74;80.18;96030.81;4384770;32;20304;-62
2023/12/27 00:42:49;;;;;;;0.70;0.70;;;;;;;8.59;80.77;96018.38;4400922;32;20331;-62
2023/12/27 00:45:16;;;;;;;0.63;0.63;;;;;;;8.66;80.82;96019.97;4405867;32;20216;-62
2023/12/27 00:47:50;;;;;;;0.70;0.70;;;;;;;8.74;80.45;96020.22;4384853;32;20284;-62
2023/12/27 00:50:17;;;;;;;2.13;0.83;;;;;;;8.86;79.78;96020.78;4388366;32;20276;-62
2023/12/27 00:52:42;;;;;;;0.43;0.43;;;;;;;8.77;79.86;96017.03;4384501;32;20378;-62
2023/12/27 00:55:08;;;;;;;1.43;1.33;;;;;;;8.80;80.09;96019.16;4372713;32;20288;-62
2023/12/27 00:57:35;;;;;;;0.27;0.27;;;;;;;8.99;79.39;96018.62;4375296;32;20215;-62
2023/12/27 01:00:01;;;;;;;1.13;1.03;;;;;;;8.88;79.54;96021.31;4326346;32;20273;-61
2023/12/27 01:02:27;;;;;;;0.77;0.77;;;;;;;8.95;79.04;96026.31;4399616;32;20187;-62
2023/12/27 01:04:54;;;;;;;6.70;0.83;;;;;;;9.04;78.77;96026.56;4405931;32;20181;-62
2023/12/27 01:07:21;;;;;;;1.00;0.50;;;;;;;8.97;79.03;96029.47;4404513;32;20271;-62
2023/12/27 01:09:49;;;;;;;0.93;0.93;;;;;;;8.89;79.30;96030.81;4402580;32;20295;-62
2023/12/27 01:12:16;;;;;;;0.33;0.33;;;;;;;8.86;79.58;96025.25;4396427;32;20352;-62
2023/12/27 01:14:42;;;;;;;3.50;1.00;;;;;;;8.98;79.25;96017.84;4403919;32;20295;-61
2023/12/27 01:17:08;;;;;;;0.87;0.87;;;;;;;8.93;79.11;96031.09;4397750;32;20176;-62
2023/12/27 01:19:33;;;;;;;0.40;0.23;;;;;;;8.88;79.39;96017.84;4368289;32;20305;-62
2023/12/27 01:21:58;;;;;;;0.23;0.23;;;;;;;8.88;79.48;96023.94;4371097;32;20294;-62
2023/12/27 01:24:26;;;;;;;2.87;0.77;;;;;;;8.88;79.39;96021.31;4392341;32;20188;-62
2023/12/27 01:26:51;;;;;;;0.70;0.70;;;;;;;8.81;79.64;96039.28;4396804;32;20288;-62
2023/12/27 01:29:17;;;;;;;1.67;0.87;;;;;;;8.75;79.79;96040.31;4353539;32;20292;-62
2023/12/27 01:31:43;;;;;;;0.50;0.50;;;;;;;8.79;79.82;96038.75;4386462;32;20184;-61
2023/12/27 01:34:09;;;;;;;0.53;0.53;;;;;;;8.78;79.90;96034.50;4402434;32;20280;-62
2023/12/27 01:36:36;;;;;;;0.77;0.60;;;;;;;8.78;80.04;96041.66;4380443;32;20205;-62
2023/12/27 01:39:02;;;;;;;0.70;0.70;;;;;;;8.69;80.59;96046.69;4386059;32;20300;-61
2023/12/27 01:41:27;;;;;;;0.90;0.73;;;;;;;8.83;80.16;96053.03;4406098;32;20332;-62
2023/12/27 01:43:53;;;;;;;2.53;0.77;;;;;;;8.81;80.17;96046.41;4373271;32;20287;-61
2023/12/27 01:46:19;;;;;;;0.77;0.77;;;;;;;8.78;80.29;96053.03;4392089;32;20194;-62
2023/12/27 01:48:51;;;;;;;0.33;0.33;;;;;;;8.72;80.66;96056.75;4387251;32;20197;-62
2023/12/27 01:51:19;;;;;;;1.73;0.73;;;;;;;8.58;81.51;96053.78;4397153;32;20171;-62
2023/12/27 01:53:46;;;;;;;1.27;0.90;;;;;;;8.57;81.51;96059.34;4372847;32;20397;-63
2023/12/27 01:56:13;;;;;;;4.60;1.07;;;;;;;8.72;80.78;96056.75;4377496;32;20327;-62
2023/12/27 01:58:42;;;;;;;0.60;0.30;;;;;;;8.69;81.12;96051.19;4384073;32;20271;-62
2023/12/27 02:01:09;;;;;;;0.67;0.67;;;;;;;8.65;81.25;96052.75;4376525;32;20272;-62
2023/12/27 02:03:34;;;;;;;0.90;0.83;;;;;;;8.55;81.63;96046.38;4355505;32;20353;-62
2023/12/27 02:06:02;;;;;;;0.30;0.30;;;;;;;8.62;81.53;96040.84;4370975;32;20275;-62
2023/12/27 02:08:28;;;;;;;0.50;0.30;;;;;;;8.61;81.56;96037.41;4372833;32;20305;-61
2023/12/27 02:10:55;;;;;;;0.43;0.43;;;;;;;8.56;81.60;96041.88;4371868;32;20288;-61
2023/12/27 02:13:20;;;;;;;1.70;0.63;;;;;;;8.64;81.33;96044.03;4387856;32;20218;-61
2023/12/27 02:15:46;;;;;;;0.60;0.60;;;;;;;8.51;82.18;96037.41;4406064;32;20272;-62
2023/12/27 02:18:15;;;;;;;0.73;0.70;;;;;;;8.65;81.75;96028.94;4393356;32;20192;-62
2023/12/27 02:20:43;;;;;;;0.37;0.37;;;;;;;8.54;81.91;96036.84;4368872;32;20263;-62
2023/12/27 02:23:15;;;;;;;0.40;0.40;;;;;;;8.77;81.08;96038.22;4370136;32;20345;-62
2023/12/27 02:25:42;;;;;;;0.33;0.33;;;;;;;8.75;81.15;96029.75;4392369;32;20267;-62
2023/12/27 02:28:09;;;;;;;0.33;0.30;;;;;;;8.75;81.44;96027.09;4402708;32;20180;-62
2023/12/27 02:30:38;;;;;;;1.03;0.63;;;;;;;8.70;81.29;96021.03;4352111;32;20356;-61
2023/12/27 02:33:04;;;;;;;0.50;0.50;;;;;;;8.83;80.64;96026.59;4385594;32;20333;-61
2023/12/27 02:35:31;;;;;;;0.20;0.20;;;;;;;8.79;81.02;96025.53;4379636;32;20203;-62
2023/12/27 02:37:58;;;;;;;0.40;0.40;;;;;;;8.65;81.27;96013.88;4402925;32;20183;-61
2023/12/27 02:40:23;;;;;;;0.70;0.17;;;;;;;8.81;80.79;96012.81;4382947;32;20324;-62
2023/12/27 02:42:50;;;;;;;0.60;0.60;;;;;;;8.90;80.12;96007.81;4375461;32;20284;-61
2023/12/27 02:45:16;;;;;;;0.60;0.60;;;;;;;8.84;80.51;96009.66;4392884;32;20229;-62
2023/12/27 02:47:43;;;;;;;1.67;0.70;;;;;;;8.79;80.80;96001.72;4386529;32;20280;-62
2023/12/27 02:50:10;;;;;;;1.90;0.90;;;;;;;8.87;80.64;96001.19;4374261;32;20322;-62
2023/12/27 02:52:37;;;;;;;0.50;0.50;;;;;;;8.84;80.46;96001.72;4386416;32;20363;-62
2023/12/27 02:55:06;;;;;;;1.70;1.03;;;;;;;8.99;79.88;95997.47;4393271;32;20266;-62
2023/12/27 02:57:34;;;;;;;0.60;0.60;;;;;;;8.98;80.10;96001.16;4375110;32;20340;-61
2023/12/27 03:00:00;;;;;;;0.50;0.50;;;;;;;8.89;80.50;95998.28;4367744;32;20365;-62
2023/12/27 03:02:28;;;;;;;0.93;0.80;;;;;;;8.86;80.61;95991.66;4373658;32;20279;-61
2023/12/27 03:04:53;;;;;;;0.43;0.43;;;;;;;8.89;80.53;95985.84;4375844;32;20283;-62
2023/12/27 03:07:20;;;;;;;0.60;0.60;;;;;;;8.79;80.94;95985.03;4391293;32;20306;-62
2023/12/27 03:09:45;;;;;;;1.60;1.17;;;;;;;8.84;80.84;95980.56;4358502;32;20211;-62
2023/12/27 03:12:10;;;;;;;1.50;0.67;;;;;;;8.95;80.07;95986.63;4372572;32;20183;-62
2023/12/27 03:14:36;;;;;;;0.60;0.60;;;;;;;8.92;80.46;95979.22;4389152;32;20306;-62
2023/12/27 03:17:02;;;;;;;4.13;0.77;;;;;;;8.88;80.55;95978.97;4375110;32;20249;-62
2023/12/27 03:19:29;;;;;;;0.77;0.77;;;;;;;8.87;80.68;95980.03;4389775;32;20172;-61
2023/12/27 03:21:56;;;;;;;0.47;0.47;;;;;;;8.93;80.49;95975.53;4380039;32;20306;-62
2023/12/27 03:24:23;;;;;;;0.67;0.67;;;;;;;8.93;80.32;95981.63;4374358;32;20230;-61
2023/12/27 03:26:51;;;;;;;0.20;0.17;;;;;;;8.96;80.46;95973.12;4371797;32;20344;-62
2023/12/27 03:29:17;;;;;;;0.30;0.30;;;;;;;8.87;80.69;95969.44;4382055;32;20287;-64
2023/12/27 03:31:46;;;;;;;0.50;0.50;;;;;;;8.98;80.50;95959.63;4416030;32;20185;-62
2023/12/27 03:34:13;;;;;;;1.60;0.50;;;;;;;8.94;80.42;95956.72;4375344;32;20196;-62
2023/12/27 03:36:39;;;;;;;0.77;0.77;;;;;;;8.94;80.29;95947.97;4380041;32;20317;-62
2023/12/27 03:39:05;;;;;;;0.37;0.37;;;;;;;9.03;80.02;95961.47;4388311;32;20466;-62
2023/12/27 03:41:31;;;;;;;0.60;0.60;;;;;;;8.97;80.23;95963.34;4382312;32;20363;-62
2023/12/27 03:43:59;;;;;;;0.60;0.60;;;;;;;8.93;80.69;95972.88;4356301;32;20283;-61
2023/12/27 03:46:26;;;;;;;0.97;0.87;;;;;;;8.79;81.13;95969.97;4381972;32;20239;-61
2023/12/27 03:48:52;;;;;;;0.60;0.60;;;;;;;8.78;81.52;95968.37;4348592;32;20438;-62
2023/12/27 03:51:22;;;;;;;0.60;0.60;;;;;;;8.74;81.61;95969.16;4383161;32;20242;-62
2023/12/27 03:53:50;;;;;;;0.73;0.73;;;;;;;8.68;82.22;95963.09;4388585;32;20336;-62
2023/12/27 03:56:16;;;;;;;0.70;0.70;;;;;;;8.69;82.40;95961.25;4374553;32;20280;-62
2023/12/27 03:58:43;;;;;;;0.50;0.50;;;;;;;8.67;82.34;95956.22;4336820;32;20280;-61
2023/12/27 04:01:10;;;;;;;0.50;0.50;;;;;;;8.64;82.77;95956.75;4364650;32;20305;-62
2023/12/27 04:03:37;;;;;;;0.63;0.50;;;;;;;8.51;83.44;95963.38;4369618;32;20350;-62
2023/12/27 04:06:05;;;;;;;1.27;0.73;;;;;;;8.64;83.14;95969.19;4347512;32;20350;-62
2023/12/27 04:08:32;;;;;;;0.30;0.30;;;;;;;8.74;82.63;95963.88;4365295;32;20298;-62
2023/12/27 04:10:57;;;;;;;1.33;0.87;;;;;;;8.90;82.17;95974.22;4355602;32;20249;-62
2023/12/27 04:13:24;;;;;;;2.73;0.60;;;;;;;8.66;82.84;95969.72;4364998;32;20280;-62
2023/12/27 04:15:49;;;;;;;0.97;0.53;;;;;;;8.63;83.08;95968.37;4367861;32;20221;-62
2023/12/27 04:18:17;;;;;;;0.33;0.33;;;;;;;8.54;83.57;95968.09;4388370;32;20292;-62
2023/12/27 04:20:44;;;;;;;0.60;0.60;;;;;;;8.59;83.96;95977.91;4342722;32;20261;-61
2023/12/27 04:23:11;;;;;;;1.07;0.53;;;;;;;8.65;83.65;95976.06;4365644;32;20323;-62
2023/12/27 04:25:36;;;;;;;0.63;0.63;;;;;;;8.58;83.87;95969.19;4382982;32;20355;-61
2023/12/27 04:28:03;;;;;;;1.80;0.77;;;;;;;8.72;83.40;95976.59;4374771;32;20519;-62
2023/12/27 04:30:29;;;;;;;0.53;0.50;;;;;;;8.70;82.93;95974.22;4366083;32;20207;-62
2023/12/27 04:32:55;;;;;;;1.10;0.93;;;;;;;8.67;83.03;95977.37;4368496;32;20342;-62
2023/12/27 04:35:22;;;;;;;0.27;0.27;;;;;;;8.70;82.50;95984.00;4375746;32;20280;-62
2023/12/27 04:37:48;;;;;;;0.60;0.60;;;;;;;8.65;82.96;95982.16;4404175;32;20260;-62
2023/12/27 04:40:15;;;;;;;7.53;1.40;;;;;;;8.85;81.76;95987.44;4385272;32;20305;-62
2023/12/27 04:42:41;;;;;;;0.37;0.37;;;;;;;8.76;82.08;95988.22;4401589;32;20283;-62
2023/12/27 04:45:08;;;;;;;0.40;0.40;;;;;;;8.63;82.64;95989.53;4408240;32;20279;-62
2023/12/27 04:47:33;;;;;;;4.33;0.93;;;;;;;8.51;83.49;95992.47;4350555;32;20193;-62
2023/12/27 04:50:00;;;;;;;0.97;0.87;;;;;;;8.41;83.98;95989.00;4379586;32;20299;-62
2023/12/27 04:52:25;;;;;;;0.50;0.50;;;;;;;8.40;84.22;95990.06;4382128;32;20240;-62
2023/12/27 04:54:50;;;;;;;0.50;0.50;;;;;;;8.41;84.26;95984.50;4372257;32;20296;-62
2023/12/27 04:57:16;;;;;;;0.20;0.20;;;;;;;8.57;83.42;95985.31;4368796;32;20259;-62
2023/12/27 04:59:47;;;;;;;0.93;0.73;;;;;;;8.66;83.02;95989.03;4392540;32;20189;-61
2023/12/27 05:02:13;;;;;;;0.53;0.53;;;;;;;8.57;83.56;95986.09;4386761;32;20189;-61
2023/12/27 05:04:38;;;;;;;2.33;0.63;;;;;;;8.57;83.62;95975.53;4394822;32;20382;-61
2023/12/27 05:07:05;;;;;;;0.77;0.50;;;;;;;8.70;83.17;95976.87;4397127;32;20286;-61
2023/12/27 05:09:33;;;;;;;0.30;0.30;;;;;;;8.64;83.41;95971.81;4396602;32;20229;-61
2023/12/27 05:12:02;;;;;;;1.17;1.10;;;;;;;8.52;84.00;95977.37;4394037;32;20302;-61
2023/12/27 05:14:29;;;;;;;0.33;0.33;;;;;;;8.56;84.13;95978.44;4393784;32;20280;-60
2023/12/27 05:16:56;;;;;;;0.70;0.50;;;;;;;8.39;85.46;95972.59;4378434;32;20286;-60
2023/12/27 05:19:23;;;;;;;2.93;0.60;;;;;;;8.42;85.63;95962.28;4385301;32;20283;-60
2023/12/27 05:21:49;;;;;;;0.60;0.60;;;;;;;8.31;86.64;95965.19;4362556;32;20295;-60
2023/12/27 05:24:16;;;;;;;1.13;0.80;;;;;;;8.01;88.59;95969.34;4385142;32;20299;-63
2023/12/27 05:26:42;;;;;;;1.37;1.27;;;;;;;7.97;89.31;95970.91;4385804;32;20287;-60
2023/12/27 05:29:08;;;;;;;0.40;0.40;;;;;;;8.06;89.19;95972.00;4390755;32;20276;-61
2023/12/27 05:31:34;;;;;;;0.97;0.77;;;;;;;8.20;88.47;95967.78;4389116;32;20176;-61
2023/12/27 05:34:01;;;;;;;0.93;0.67;;;;;;;8.14;88.72;95971.47;4386384;32;20192;-61
2023/12/27 05:36:28;;;;;;;0.30;0.30;;;;;;;8.03;89.56;95972.50;4406474;32;20331;-61
2023/12/27 05:38:53;;;;;;;0.40;0.40;;;;;;;8.14;89.16;95970.69;4364417;32;20455;-60
2023/12/27 05:41:25;;;;;;;0.83;0.67;;;;;;;8.15;89.04;95978.34;4368535;32;20280;-61
2023/12/27 05:43:53;;;;;;;1.00;1.00;;;;;;;8.15;89.04;95977.56;4394725;32;20265;-60
2023/12/27 05:46:19;;;;;;;0.40;0.40;;;;;;;8.05;89.39;95977.53;4359769;32;20280;-61
2023/12/27 05:48:48;;;;;;;0.57;0.57;;;;;;;7.93;90.01;95964.53;4358509;32;20418;-60
2023/12/27 05:51:14;;;;;;;0.63;0.50;;;;;;;7.96;90.05;95964.03;4388319;32;20291;-60
2023/12/27 05:53:41;;;;;;;0.57;0.50;;;;;;;7.93;90.15;95964.53;4388352;32;20276;-61
2023/12/27 05:56:09;;;;;;;2.27;0.50;;;;;;;8.10;89.31;95959.84;4395719;32;20287;-60
2023/12/27 05:58:34;;;;;;;0.60;0.60;;;;;;;8.10;88.97;95964.34;4352186;32;20318;-61
2023/12/27 06:01:00;;;;;;;1.33;0.93;;;;;;;8.06;89.12;95966.72;4399282;32;20272;-61
2023/12/27 06:03:26;;;;;;;0.17;0.17;;;;;;;7.92;89.46;95968.25;4387011;32;20260;-60
2023/12/27 06:05:57;;;;;;;0.60;0.27;;;;;;;7.45;91.94;95966.50;4397054;32;20180;-61
2023/12/27 06:08:23;;;;;;;0.30;0.30;;;;;;;7.55;91.92;95961.25;4370349;32;20324;-61
2023/12/27 06:10:50;;;;;;;0.40;0.40;;;;;;;7.58;91.74;95965.22;4404790;32;20299;-61
2023/12/27 06:13:18;;;;;;;0.30;0.30;;;;;;;7.62;91.81;95968.16;4390487;32;20331;-62
2023/12/27 06:15:44;;;;;;;0.87;0.67;;;;;;;7.62;91.62;95957.59;4394783;32;20276;-60
2023/12/27 06:18:10;;;;;;;0.80;0.80;;;;;;;7.59;91.66;95962.34;4381953;32;20309;-60
2023/12/27 06:20:36;;;;;;;0.77;0.77;;;;;;;7.54;91.80;95964.16;4391979;32;20359;-61
2023/12/27 06:23:03;;;;;;;0.50;0.50;;;;;;;7.59;91.47;95970.25;4394521;32;20313;-60
2023/12/27 06:25:31;;;;;;;0.83;0.70;;;;;;;7.55;91.27;95963.91;4401674;32;20311;-61
2023/12/27 06:27:57;;;;;;;3.83;1.13;;;;;;;7.65;90.80;95962.37;4364824;32;20322;-60
2023/12/27 06:30:24;;;;;;;0.73;0.73;;;;;;;7.63;91.03;95967.91;4375778;32;20304;-60
2023/12/27 06:32:50;;;;;;;0.20;0.20;;;;;;;7.40;91.41;95963.84;4364189;32;20327;-61
2023/12/27 06:35:17;;;;;;;0.60;0.60;;;;;;;7.39;91.52;95979.94;4397060;32;20370;-63
2023/12/27 06:37:44;;;;;;;0.23;0.23;;;;;;;7.33;92.04;95973.81;4404190;32;20357;-61
2023/12/27 06:40:10;;;;;;;0.20;0.20;;;;;;;7.19;92.63;95972.69;4389829;32;20296;-61
2023/12/27 06:42:37;;;;;;;0.73;0.63;;;;;;;7.17;92.84;95975.59;4388688;32;20362;-61
2023/12/27 06:45:05;;;;;;;2.23;0.80;;;;;;;7.06;93.29;95976.59;4401059;32;20199;-61
2023/12/27 06:47:30;;;;;;;0.97;0.87;;;;;;;7.03;93.72;95976.28;4392065;32;20328;-61
2023/12/27 06:49:57;;;;;;;4.00;0.60;;;;;;;7.27;93.27;95972.22;4382898;32;20276;-61
2023/12/27 06:52:22;;;;;;;0.50;0.50;;;;;;;7.22;92.82;95980.09;4383310;32;20202;-61
2023/12/27 06:54:50;;;;;;;0.97;0.97;;;;;;;7.02;93.38;95979.97;4377201;32;20278;-61
2023/12/27 06:57:16;;;;;;;2.20;1.03;;;;;;;6.99;93.64;95980.47;4390208;32;20203;-61
2023/12/27 06:59:45;;;;;;;0.60;0.50;;;;;;;6.68;95.29;95974.97;4402990;32;20372;-62
2023/12/27 07:02:13;;;;;;;2.33;0.93;;;;;;;6.50;100.00;95967.47;4398443;32;20275;-61
2023/12/27 07:04:41;;;;;;;0.93;0.53;;;;;;;6.67;100.00;95965.47;4399690;32;20363;-61
2023/12/27 07:07:11;;;;;;;0.30;0.30;;;;;;;6.78;100.00;95964.53;4383478;32;20294;-61
2023/12/27 07:09:39;;;;;;;1.10;0.80;;;;;;;6.61;100.00;95965.72;4403995;32;20359;-61
2023/12/27 07:12:08;;;;;;;0.87;0.87;;;;;;;6.73;100.00;95967.13;4378681;32;20276;-61
2023/12/27 07:14:38;;;;;;;0.40;0.40;;;;;;;6.85;100.00;95973.03;4374278;32;20307;-61
2023/12/27 07:17:04;;;;;;;0.60;0.60;;;;;;;6.67;100.00;95976.03;4346405;32;20331;-61
2023/12/27 07:19:32;;;;;;;0.50;0.50;;;;;;;6.58;100.00;95976.75;4355299;32;20318;-61
2023/12/27 07:21:58;;;;;;;1.40;0.53;;;;;;;6.50;100.00;95978.78;4367438;32;20302;-60
2023/12/27 07:24:24;;;;;;;0.30;0.30;;;;;;;6.38;100.00;95985.28;4384191;32;20294;-61
2023/12/27 07:26:50;;;;;;;0.33;0.33;;;;;;;6.58;100.00;95979.41;4397217;32;20354;-60
2023/12/27 07:29:15;;;;;;;7.53;0.97;;;;;;;6.67;100.00;95978.66;4392287;32;20165;-61
2023/12/27 07:31:45;;;;;;;0.67;0.67;;;;;;;6.77;100.00;95977.97;4401804;32;20286;-60
2023/12/27 07:34:10;;;;;;;0.93;0.67;;;;;;;6.75;100.00;95970.28;4387256;32;20210;-60
2023/12/27 07:36:37;;;;;;;0.20;0.20;;;;;;;6.72;100.00;95977.91;4390234;32;20366;-61
2023/12/27 07:39:06;;;;;;;0.60;0.60;;;;;;;6.74;100.00;95973.19;4366927;32;20209;-60
2023/12/27 07:41:33;;;;;;;0.60;0.60;;;;;;;6.75;100.00;95986.13;4389860;32;20338;-61
2023/12/27 07:43:58;;;;;;;0.40;0.37;;;;;;;6.80;99.71;95983.53;4394028;32;20267;-60
2023/12/27 07:46:26;;;;;;;0.50;0.50;;;;;;;6.32;100.00;95991.53;4375021;32;20298;-61
2023/12/27 07:48:52;;;;;;;0.47;0.47;;;;;;;6.28;100.00;95979.91;4398401;32;20278;-61
2023/12/27 07:51:18;;;;;;;0.50;0.50;;;;;;;6.16;99.78;95978.22;4397024;32;20295;-62
2023/12/27 07:53:44;;;;;;;0.70;0.70;;;;;;;5.83;100.00;95979.16;4376133;32;20188;-60
2023/12/27 07:56:15;;;;;;;1.00;0.77;;;;;;;5.67;100.00;95976.59;4371219;32;20276;-61
2023/12/27 07:58:42;;;;;;;0.93;0.93;;;;;;;5.61;100.00;95967.09;4381097;32;20282;-61
2023/12/27 08:01:07;;;;;;;0.80;0.80;;;;;;;5.72;100.00;95966.16;4404678;32;20275;-61
2023/12/27 08:03:32;;;;;;;0.40;0.40;;;;;;;5.88;100.00;95967.91;4390631;32;20307;-61
2023/12/27 08:05:59;;;;;;;2.37;0.67;;;;;;;5.74;100.00;95961.44;4393693;32;20187;-61
2023/12/27 08:08:26;;;;;;;0.60;0.60;;;;;;;5.90;100.00;95965.03;4393952;32;20184;-60
2023/12/27 08:10:52;;;;;;;0.70;0.70;;;;;;;6.15;98.58;95963.47;4396450;32;20317;-61
2023/12/27 08:13:19;;;;;;;0.33;0.33;;;;;;;6.20;95.23;95978.53;4405531;32;20311;-61
2023/12/27 08:15:45;;;;;;;0.80;0.80;;;;;;;6.43;90.92;95980.06;4362582;32;20280;-60
2023/12/27 08:18:11;;;;;;;0.63;0.63;;;;;;;6.42;87.54;95984.53;4399503;32;20294;-60
2023/12/27 08:20:38;;;;;;;1.13;1.03;;;;;;;6.64;86.09;95995.00;4361533;32;20207;-60
2023/12/27 08:23:03;;;;;;;0.33;0.33;;;;;;;6.58;84.51;95996.00;4377991;32;20223;-61
2023/12/27 08:25:34;;;;;;;0.80;0.80;;;;;;;6.57;84.32;96002.31;4350269;32;20379;-60
2023/12/27 08:28:01;;;;;;;1.87;1.13;;;;;;;6.52;83.84;96002.28;4375056;32;20196;-61
2023/12/27 08:30:28;;;;;;;4.47;0.97;;;;;;;6.59;83.73;96008.13;4380791;32;20310;-61
2023/12/27 08:32:54;;;;;;;0.43;0.43;;;;;;;6.43;83.67;96004.56;4404523;32;20279;-61
2023/12/27 08:35:19;;;;;;;0.73;0.73;;;;;;;6.30;83.85;96001.53;4390737;32;20301;-61
2023/12/27 08:37:45;;;;;;;0.80;0.80;;;;;;;6.14;84.47;96005.84;4403135;32;20215;-61
2023/12/27 08:40:11;;;;;;;0.27;0.27;;;;;;;6.10;84.62;96008.19;4338707;32;20196;-61
2023/12/27 08:42:37;;;;;;;0.53;0.53;;;;;;;6.36;83.86;96011.09;4374229;32;20357;-59
2023/12/27 08:45:04;;;;;;;1.37;0.63;;;;;;;6.49;83.16;96010.66;4374222;32;20254;-61
2023/12/27 08:47:30;;;;;;;0.40;0.40;;;;;;;6.69;82.40;96010.03;4381828;32;20184;-61
2023/12/27 08:49:56;;;;;;;0.40;0.40;;;;;;;6.74;81.81;96005.63;4377716;32;20379;-61
2023/12/27 08:52:24;;;;;;;0.20;0.20;;;;;;;6.70;82.09;96004.53;4404434;32;20272;-61
2023/12/27 08:54:53;;;;;;;0.23;0.23;;;;;;;6.75;81.56;96001.94;4389388;32;20202;-60
2023/12/27 08:57:20;;;;;;;0.47;0.30;;;;;;;6.72;81.62;96001.63;4378337;32;20284;-61
2023/12/27 08:59:45;;;;;;;0.50;0.50;;;;;;;6.65;81.32;96009.75;4381331;32;20413;-60
2023/12/27 09:02:12;;;;;;;0.50;0.50;;;;;;;6.75;80.99;96007.22;4385518;32;20311;-61
2023/12/27 09:04:38;;;;;;;0.53;0.53;;;;;;;6.80;80.60;96003.81;4359887;32;20202;-60
2023/12/27 09:07:06;;;;;;;0.87;0.60;;;;;;;6.82;80.25;96013.06;4393561;32;20282;-60
2023/12/27 09:09:33;;;;;;;0.30;0.30;;;;;;;6.90;79.34;96014.44;4369044;32;20364;-61
2023/12/27 09:12:04;;;;;;;0.23;0.23;;;;;;;6.76;79.76;96021.97;4399851;32;20287;-60
2023/12/27 09:14:31;;;;;;;0.50;0.50;;;;;;;6.86;79.24;96018.62;4394087;32;20283;-60
2023/12/27 09:16:57;;;;;;;1.90;0.47;;;;;;;7.06;78.84;96013.53;4379303;32;20399;-60
2023/12/27 09:19:23;;;;;;;0.13;0.13;;;;;;;7.15;78.22;96003.28;4370288;32;20275;-61
2023/12/27 09:21:50;;;;;;;0.70;0.70;;;;;;;7.12;78.60;96003.78;4353164;32;20320;-61
2023/12/27 09:24:15;;;;;;;0.30;0.30;;;;;;;7.04;78.92;96001.63;4391347;32;20272;-62
2023/12/27 09:26:42;;;;;;;0.50;0.50;;;;;;;7.00;79.06;95997.91;4379970;32;20341;-60
2023/12/27 09:29:10;;;;;;;3.67;0.47;;;;;;;6.97;79.29;95993.13;4397058;32;20179;-61
2023/12/27 09:31:35;;;;;;;0.83;0.63;;;;;;;7.01;79.04;95999.50;4405707;32;23737;-61
2023/12/27 09:34:02;;;;;;;1.33;0.40;;;;;;;7.06;78.91;96004.81;4403582;32;20276;-61
2023/12/27 09:36:31;;;;;;;0.70;0.70;;;;;;;7.19;78.36;96007.00;4380419;32;20268;-61
2023/12/27 09:39:00;;;;;;;0.53;0.53;;;;;;;7.16;78.63;96007.50;4383574;32;20242;-60
2023/12/27 09:41:26;;;;;;;0.53;0.53;;;;;;;7.23;78.44;96002.81;4386147;32;20335;-60
2023/12/27 09:43:55;;;;;;;0.47;0.47;;;;;;;7.16;78.48;95997.75;4398284;32;20299;-61
2023/12/27 09:46:26;;;;;;;0.73;0.73;;;;;;;7.12;78.59;96001.94;4353069;32;20191;-60
2023/12/27 09:48:55;;;;;;;0.40;0.40;;;;;;;7.22;78.43;95988.81;4371048;32;20299;-61
2023/12/27 09:51:25;;;;;;;0.67;0.50;;;;;;;7.16;78.86;95986.41;4374660;32;20332;-61
2023/12/27 09:53:51;;;;;;;0.57;0.57;;;;;;;7.24;78.92;95981.44;4390712;32;20298;-61
2023/12/27 09:56:22;;;;;;;0.47;0.47;;;;;;;7.29;78.71;95983.28;4372314;32;20343;-61
2023/12/27 09:58:53;;;;;;;0.30;0.30;;;;;;;7.51;78.26;95976.00;4354813;32;20325;-61
2023/12/27 10:01:24;;;;;;;1.40;0.47;;;;;;;7.58;77.79;95966.03;4373075;32;20266;-61
2023/12/27 10:04:04;;;;;;;0.60;0.60;;;;;;;7.58;77.58;95960.75;4380012;32;20299;-61
2023/12/27 10:06:51;;;;;;;0.50;0.50;;;;;;;7.78;77.12;95948.66;4391502;32;20298;-60
2023/12/27 10:09:17;;;;;;;0.20;0.20;;;;;;;7.85;76.75;95943.94;4394553;32;20324;-61
2023/12/27 10:11:43;;;;;;;0.70;0.70;;;;;;;7.89;76.50;95940.53;4360463;32;20284;-61
2023/12/27 10:14:13;;;;;;;0.83;0.83;;;;;;;7.97;76.02;95928.63;4402733;32;20207;-61
2023/12/27 10:16:38;;;;;;;0.70;0.70;;;;;;;8.09;75.71;95928.41;4404099;32;20185;-61
2023/12/27 10:19:05;;;;;;;1.30;0.73;;;;;;;8.14;75.69;95929.19;4401285;32;20310;-60
2023/12/27 10:21:53;;;;;;;0.50;0.50;;;;;;;8.15;75.70;95920.22;4395420;32;20184;-60
2023/12/27 10:24:18;;;;;;;0.30;0.30;;;;;;;8.21;74.94;95932.38;4370930;32;20306;-60
2023/12/27 10:26:45;;;;;;;0.67;0.67;;;;;;;8.24;74.77;95923.13;4382361;32;20285;-61
2023/12/27 10:29:15;;;;;;;0.30;0.30;;;;;;;8.21;74.06;95919.16;4372413;32;20226;-60
2023/12/27 10:31:41;;;;;;;0.30;0.30;;;;;;;8.27;73.29;95917.31;4382411;32;20333;-61
2023/12/27 10:34:08;;;;;;;0.97;0.70;;;;;;;8.24;73.20;95908.06;4386877;32;20384;-61
2023/12/27 10:36:39;;;;;;;0.63;0.63;;;;;;;8.28;71.75;95900.41;4397740;32;20275;-61
2023/12/27 10:39:07;;;;;;;0.33;0.33;;;;;;;8.32;70.24;95890.09;4391848;32;20295;-61
2023/12/27 10:41:37;;;;;;;0.30;0.30;;;;;;;8.33;69.60;95883.78;4389313;32;20382;-61
2023/12/27 10:44:11;;;;;;;0.60;0.60;;;;;;;8.37;68.13;95879.53;4370021;32;20324;-61
2023/12/27 10:46:38;;;;;;;0.50;0.50;;;;;;;8.41;67.50;95870.81;4377595;32;20349;-61
2023/12/27 10:49:08;;;;;;;0.30;0.30;;;;;;;8.47;67.39;95879.56;4411076;32;20310;-61
2023/12/27 10:51:40;;;;;;;0.77;0.53;;;;;;;8.58;66.87;95865.25;4365395;32;20306;-61
2023/12/27 10:54:14;;;;;;;1.00;1.00;;;;;;;8.55;66.29;95863.13;4374800;32;20379;-61
2023/12/27 10:56:42;;;;;;;0.37;0.37;;;;;;;8.63;66.63;95853.88;4385933;32;20373;-61
2023/12/27 10:59:10;;;;;;;5.30;2.93;;;;;;;8.57;66.95;95853.88;4399298;32;20284;-61
2023/12/27 11:01:43;;;;;;;0.60;0.60;;;;;;;8.69;66.67;95850.16;4397548;32;20314;-61
2023/12/27 11:04:13;;;;;;;0.60;0.60;;;;;;;8.73;66.57;95840.66;4401493;32;20283;-61
2023/12/27 11:06:39;;;;;;;0.30;0.30;;;;;;;8.69;67.03;95835.09;4374399;32;20324;-61
2023/12/27 11:09:09;;;;;;;0.60;0.60;;;;;;;8.63;66.44;95830.06;4393518;32;20288;-61
2023/12/27 11:11:40;;;;;;;0.07;0.07;;;;;;;8.48;67.21;95834.34;4390110;32;20180;-61
2023/12/27 11:14:08;;;;;;;0.40;0.40;;;;;;;8.65;66.66;95828.75;4349557;32;20280;-61
2023/12/27 11:16:40;;;;;;;0.40;0.40;;;;;;;8.61;66.52;95819.75;4387352;32;20361;-62
2023/12/27 11:19:12;;;;;;;0.53;0.53;;;;;;;8.63;67.08;95811.56;4370867;32;20477;-61
2023/12/27 11:21:40;;;;;;;0.50;0.50;;;;;;;8.75;66.79;95815.50;4366599;32;20419;-61
2023/12/27 11:24:07;;;;;;;0.30;0.30;;;;;;;8.82;66.83;95808.06;4385422;32;20271;-61
2023/12/27 11:26:36;;;;;;;0.30;0.30;;;;;;;8.84;67.15;95811.25;4375469;32;20288;-61
2023/12/27 11:29:08;;;;;;;0.63;0.63;;;;;;;8.93;66.76;95793.75;4376819;32;20299;-61
2023/12/27 11:31:37;;;;;;;4.10;0.73;;;;;;;8.89;65.87;95800.66;4345816;32;20326;-61
2023/12/27 11:34:04;;;;;;;0.20;0.20;;;;;;;8.86;66.44;95789.81;4391761;32;20291;-61
2023/12/27 11:36:30;;;;;;;2.87;0.70;;;;;;;8.94;65.91;95779.44;4378841;32;20276;-61
2023/12/27 11:39:01;;;;;;;0.43;0.40;;;;;;;8.93;66.12;95792.97;4396827;32;20382;-61
2023/12/27 11:41:28;;;;;;;1.80;0.80;;;;;;;8.92;67.02;95775.50;4375535;32;20215;-61